sensor_id;sensor_type;location;lat;lon;timestamp;P1;durP1;ratioP1;P2;durP2;ratioP2
20928;SDS011;21895;47.072;15.132;2024-02-21T00:01:17;4.03;;;1.60;;
20928;SDS011;21895;47.072;15.132;2024-02-21T00:03:45;1.80;;;1.17;;
20928;SDS011;21895;47.072;15.132;2024-02-21T00:06:12;1.27;;;0.90;;
20928;SDS011;21895;47.072;15.132;2024-02-21T00:08:38;0.60;;;0.60;;
20928;SDS011;21895;47.072;15.132;2024-02-21T00:11:05;1.93;;;1.00;;
20928;SDS011;21895;47.072;15.132;2024-02-21T00:13:32;2.10;;;0.87;;
20928;SDS011;21895;47.072;15.132;2024-02-21T00:16:00;1.17;;;0.80;;
20928;SDS011;21895;47.072;15.132;2024-02-21T00:18:27;3.83;;;1.60;;
20928;SDS011;21895;47.072;15.132;2024-02-21T00:20:56;1.87;;;1.20;;
20928;SDS011;21895;47.072;15.132;2024-02-21T00:23:22;2.27;;;0.77;;
20928;SDS011;21895;47.072;15.132;2024-02-21T00:25:49;1.03;;;0.73;;
20928;SDS011;21895;47.072;15.132;2024-02-21T00:28:16;2.07;;;0.80;;
20928;SDS011;21895;47.072;15.132;2024-02-21T00:30:43;1.33;;;1.00;;
20928;SDS011;21895;47.072;15.132;2024-02-21T00:33:10;2.40;;;1.10;;
20928;SDS011;21895;47.072;15.132;2024-02-21T00:35:37;2.33;;;1.30;;
20928;SDS011;21895;47.072;15.132;2024-02-21T00:38:03;2.83;;;1.00;;
20928;SDS011;21895;47.072;15.132;2024-02-21T00:40:30;7.53;;;1.20;;
20928;SDS011;21895;47.072;15.132;2024-02-21T00:42:57;1.93;;;0.67;;
20928;SDS011;21895;47.072;15.132;2024-02-21T00:45:24;3.47;;;1.17;;
20928;SDS011;21895;47.072;15.132;2024-02-21T00:47:50;4.60;;;1.30;;
20928;SDS011;21895;47.072;15.132;2024-02-21T00:50:17;6.90;;;1.47;;
20928;SDS011;21895;47.072;15.132;2024-02-21T00:52:44;4.27;;;2.10;;
20928;SDS011;21895;47.072;15.132;2024-02-21T00:55:10;3.33;;;1.10;;
20928;SDS011;21895;47.072;15.132;2024-02-21T00:57:37;5.33;;;1.53;;
20928;SDS011;21895;47.072;15.132;2024-02-21T01:00:04;3.33;;;1.60;;
20928;SDS011;21895;47.072;15.132;2024-02-21T01:02:33;1.33;;;0.90;;
20928;SDS011;21895;47.072;15.132;2024-02-21T01:05:01;2.80;;;1.13;;
20928;SDS011;21895;47.072;15.132;2024-02-21T01:07:29;1.67;;;0.87;;
20928;SDS011;21895;47.072;15.132;2024-02-21T01:09:55;1.20;;;0.77;;
20928;SDS011;21895;47.072;15.132;2024-02-21T01:12:22;2.83;;;0.73;;
20928;SDS011;21895;47.072;15.132;2024-02-21T01:14:49;1.17;;;0.83;;
20928;SDS011;21895;47.072;15.132;2024-02-21T01:17:15;0.33;;;0.33;;
20928;SDS011;21895;47.072;15.132;2024-02-21T01:19:42;4.07;;;1.03;;
20928;SDS011;21895;47.072;15.132;2024-02-21T01:22:09;2.60;;;1.33;;
20928;SDS011;21895;47.072;15.132;2024-02-21T01:24:35;3.87;;;1.50;;
20928;SDS011;21895;47.072;15.132;2024-02-21T01:27:02;4.70;;;1.70;;
20928;SDS011;21895;47.072;15.132;2024-02-21T01:29:29;8.20;;;1.80;;
20928;SDS011;21895;47.072;15.132;2024-02-21T01:31:55;3.77;;;1.47;;
20928;SDS011;21895;47.072;15.132;2024-02-21T01:34:22;1.17;;;0.73;;
20928;SDS011;21895;47.072;15.132;2024-02-21T01:36:49;4.50;;;1.30;;
20928;SDS011;21895;47.072;15.132;2024-02-21T01:39:15;1.60;;;1.20;;
20928;SDS011;21895;47.072;15.132;2024-02-21T01:41:43;1.00;;;0.90;;
20928;SDS011;21895;47.072;15.132;2024-02-21T01:44:09;2.27;;;0.87;;
20928;SDS011;21895;47.072;15.132;2024-02-21T01:46:36;1.30;;;0.83;;
20928;SDS011;21895;47.072;15.132;2024-02-21T01:49:03;0.70;;;0.70;;
20928;SDS011;21895;47.072;15.132;2024-02-21T01:51:30;2.40;;;1.37;;
20928;SDS011;21895;47.072;15.132;2024-02-21T01:53:58;1.00;;;0.70;;
20928;SDS011;21895;47.072;15.132;2024-02-21T01:56:25;2.10;;;0.77;;
20928;SDS011;21895;47.072;15.132;2024-02-21T01:58:52;2.70;;;0.80;;
20928;SDS011;21895;47.072;15.132;2024-02-21T02:01:21;3.33;;;0.90;;
20928;SDS011;21895;47.072;15.132;2024-02-21T02:03:48;6.10;;;0.80;;
20928;SDS011;21895;47.072;15.132;2024-02-21T02:06:15;3.93;;;1.37;;
20928;SDS011;21895;47.072;15.132;2024-02-21T02:08:42;4.17;;;1.53;;
20928;SDS011;21895;47.072;15.132;2024-02-21T02:11:09;1.20;;;1.10;;
20928;SDS011;21895;47.072;15.132;2024-02-21T02:13:38;3.40;;;1.73;;
20928;SDS011;21895;47.072;15.132;2024-02-21T02:16:05;2.40;;;1.17;;
20928;SDS011;21895;47.072;15.132;2024-02-21T02:18:32;2.57;;;0.90;;
20928;SDS011;21895;47.072;15.132;2024-02-21T02:20:59;2.17;;;1.10;;
20928;SDS011;21895;47.072;15.132;2024-02-21T02:23:31;0.90;;;0.60;;
20928;SDS011;21895;47.072;15.132;2024-02-21T02:25:59;0.87;;;0.70;;
20928;SDS011;21895;47.072;15.132;2024-02-21T02:28:26;2.73;;;1.37;;
20928;SDS011;21895;47.072;15.132;2024-02-21T02:30:53;6.37;;;1.63;;
20928;SDS011;21895;47.072;15.132;2024-02-21T02:33:20;10.03;;;1.20;;
20928;SDS011;21895;47.072;15.132;2024-02-21T02:35:47;3.03;;;1.50;;
20928;SDS011;21895;47.072;15.132;2024-02-21T02:38:13;3.17;;;1.40;;
20928;SDS011;21895;47.072;15.132;2024-02-21T02:40:40;3.37;;;1.53;;
20928;SDS011;21895;47.072;15.132;2024-02-21T02:43:08;4.27;;;1.33;;
20928;SDS011;21895;47.072;15.132;2024-02-21T02:45:35;1.00;;;1.00;;
20928;SDS011;21895;47.072;15.132;2024-02-21T02:48:02;2.83;;;1.47;;
20928;SDS011;21895;47.072;15.132;2024-02-21T02:50:30;2.20;;;1.27;;
20928;SDS011;21895;47.072;15.132;2024-02-21T02:52:57;1.07;;;0.90;;
20928;SDS011;21895;47.072;15.132;2024-02-21T02:55:24;1.67;;;1.00;;
20928;SDS011;21895;47.072;15.132;2024-02-21T02:57:51;1.80;;;1.10;;
20928;SDS011;21895;47.072;15.132;2024-02-21T03:00:18;4.73;;;1.90;;
20928;SDS011;21895;47.072;15.132;2024-02-21T03:02:45;2.23;;;1.10;;
20928;SDS011;21895;47.072;15.132;2024-02-21T03:05:16;1.30;;;1.20;;
20928;SDS011;21895;47.072;15.132;2024-02-21T03:07:47;1.40;;;0.90;;
20928;SDS011;21895;47.072;15.132;2024-02-21T03:10:17;2.37;;;1.03;;
20928;SDS011;21895;47.072;15.132;2024-02-21T03:12:45;3.37;;;1.43;;
20928;SDS011;21895;47.072;15.132;2024-02-21T03:15:12;2.13;;;1.07;;
20928;SDS011;21895;47.072;15.132;2024-02-21T03:17:40;0.70;;;0.70;;
20928;SDS011;21895;47.072;15.132;2024-02-21T03:20:07;5.83;;;1.23;;
20928;SDS011;21895;47.072;15.132;2024-02-21T03:22:36;3.47;;;1.43;;
20928;SDS011;21895;47.072;15.132;2024-02-21T03:25:03;3.07;;;1.63;;
20928;SDS011;21895;47.072;15.132;2024-02-21T03:27:31;7.90;;;1.70;;
20928;SDS011;21895;47.072;15.132;2024-02-21T03:29:57;4.00;;;1.23;;
20928;SDS011;21895;47.072;15.132;2024-02-21T03:32:24;7.83;;;1.77;;
20928;SDS011;21895;47.072;15.132;2024-02-21T03:34:51;4.63;;;1.27;;
20928;SDS011;21895;47.072;15.132;2024-02-21T03:37:17;2.00;;;0.83;;
20928;SDS011;21895;47.072;15.132;2024-02-21T03:39:44;2.63;;;1.40;;
20928;SDS011;21895;47.072;15.132;2024-02-21T03:42:11;2.20;;;1.60;;
20928;SDS011;21895;47.072;15.132;2024-02-21T03:44:38;10.60;;;1.73;;
20928;SDS011;21895;47.072;15.132;2024-02-21T03:47:04;5.13;;;1.17;;
20928;SDS011;21895;47.072;15.132;2024-02-21T03:49:31;4.10;;;1.60;;
20928;SDS011;21895;47.072;15.132;2024-02-21T03:51:58;1.43;;;1.03;;
20928;SDS011;21895;47.072;15.132;2024-02-21T03:54:24;2.83;;;1.20;;
20928;SDS011;21895;47.072;15.132;2024-02-21T03:56:51;4.07;;;1.23;;
20928;SDS011;21895;47.072;15.132;2024-02-21T03:59:18;3.83;;;0.97;;
20928;SDS011;21895;47.072;15.132;2024-02-21T04:01:45;2.27;;;1.20;;
20928;SDS011;21895;47.072;15.132;2024-02-21T04:04:12;1.33;;;1.00;;
20928;SDS011;21895;47.072;15.132;2024-02-21T04:06:48;1.17;;;0.80;;
20928;SDS011;21895;47.072;15.132;2024-02-21T04:09:16;2.07;;;0.77;;
20928;SDS011;21895;47.072;15.132;2024-02-21T04:11:43;5.27;;;1.23;;
20928;SDS011;21895;47.072;15.132;2024-02-21T04:14:09;2.57;;;1.03;;
20928;SDS011;21895;47.072;15.132;2024-02-21T04:16:37;3.03;;;1.23;;
20928;SDS011;21895;47.072;15.132;2024-02-21T04:19:04;4.30;;;1.50;;
20928;SDS011;21895;47.072;15.132;2024-02-21T04:21:31;2.53;;;1.23;;
20928;SDS011;21895;47.072;15.132;2024-02-21T04:23:57;2.37;;;1.20;;
20928;SDS011;21895;47.072;15.132;2024-02-21T04:26:24;2.03;;;1.33;;
20928;SDS011;21895;47.072;15.132;2024-02-21T04:28:50;1.70;;;0.80;;
20928;SDS011;21895;47.072;15.132;2024-02-21T04:31:17;10.17;;;1.30;;
20928;SDS011;21895;47.072;15.132;2024-02-21T04:33:44;1.30;;;0.77;;
20928;SDS011;21895;47.072;15.132;2024-02-21T04:36:10;2.47;;;1.10;;
20928;SDS011;21895;47.072;15.132;2024-02-21T04:38:37;6.57;;;1.63;;
20928;SDS011;21895;47.072;15.132;2024-02-21T04:41:04;2.37;;;0.83;;
20928;SDS011;21895;47.072;15.132;2024-02-21T04:43:31;5.27;;;1.00;;
20928;SDS011;21895;47.072;15.132;2024-02-21T04:45:58;1.47;;;0.83;;
20928;SDS011;21895;47.072;15.132;2024-02-21T04:48:25;1.43;;;1.03;;
20928;SDS011;21895;47.072;15.132;2024-02-21T04:50:52;1.03;;;0.87;;
20928;SDS011;21895;47.072;15.132;2024-02-21T04:53:18;2.20;;;1.30;;
20928;SDS011;21895;47.072;15.132;2024-02-21T04:55:45;2.33;;;1.13;;
20928;SDS011;21895;47.072;15.132;2024-02-21T04:58:13;4.80;;;1.13;;
20928;SDS011;21895;47.072;15.132;2024-02-21T05:00:40;3.83;;;1.10;;
20928;SDS011;21895;47.072;15.132;2024-02-21T05:03:10;9.93;;;1.37;;
20928;SDS011;21895;47.072;15.132;2024-02-21T05:05:36;1.83;;;1.07;;
20928;SDS011;21895;47.072;15.132;2024-02-21T05:08:03;3.37;;;1.27;;
20928;SDS011;21895;47.072;15.132;2024-02-21T05:10:30;2.20;;;1.40;;
20928;SDS011;21895;47.072;15.132;2024-02-21T05:12:57;4.03;;;1.47;;
20928;SDS011;21895;47.072;15.132;2024-02-21T05:15:24;3.13;;;1.70;;
20928;SDS011;21895;47.072;15.132;2024-02-21T05:17:51;2.87;;;1.37;;
20928;SDS011;21895;47.072;15.132;2024-02-21T05:20:17;3.37;;;1.50;;
20928;SDS011;21895;47.072;15.132;2024-02-21T05:22:44;3.40;;;1.33;;
20928;SDS011;21895;47.072;15.132;2024-02-21T05:25:11;5.03;;;1.67;;
20928;SDS011;21895;47.072;15.132;2024-02-21T05:27:37;2.43;;;1.30;;
20928;SDS011;21895;47.072;15.132;2024-02-21T05:30:04;3.47;;;1.53;;
20928;SDS011;21895;47.072;15.132;2024-02-21T05:32:32;4.50;;;1.73;;
20928;SDS011;21895;47.072;15.132;2024-02-21T05:34:58;6.10;;;1.60;;
20928;SDS011;21895;47.072;15.132;2024-02-21T05:37:25;4.93;;;1.57;;
20928;SDS011;21895;47.072;15.132;2024-02-21T05:39:52;1.53;;;0.90;;
20928;SDS011;21895;47.072;15.132;2024-02-21T05:42:19;1.70;;;1.27;;
20928;SDS011;21895;47.072;15.132;2024-02-21T05:44:45;3.27;;;1.13;;
20928;SDS011;21895;47.072;15.132;2024-02-21T05:47:12;7.73;;;1.07;;
20928;SDS011;21895;47.072;15.132;2024-02-21T05:49:40;1.87;;;1.27;;
20928;SDS011;21895;47.072;15.132;2024-02-21T05:52:08;2.80;;;1.00;;
20928;SDS011;21895;47.072;15.132;2024-02-21T05:54:37;2.53;;;1.33;;
20928;SDS011;21895;47.072;15.132;2024-02-21T05:57:05;0.63;;;0.63;;
20928;SDS011;21895;47.072;15.132;2024-02-21T05:59:33;1.13;;;0.97;;
20928;SDS011;21895;47.072;15.132;2024-02-21T06:02:01;3.47;;;1.00;;
20928;SDS011;21895;47.072;15.132;2024-02-21T06:04:29;1.97;;;0.97;;
20928;SDS011;21895;47.072;15.132;2024-02-21T06:06:56;1.13;;;0.93;;
20928;SDS011;21895;47.072;15.132;2024-02-21T06:09:23;14.43;;;1.60;;
20928;SDS011;21895;47.072;15.132;2024-02-21T06:11:49;1.40;;;1.20;;
20928;SDS011;21895;47.072;15.132;2024-02-21T06:14:16;6.70;;;1.23;;
20928;SDS011;21895;47.072;15.132;2024-02-21T06:16:43;0.97;;;0.90;;
20928;SDS011;21895;47.072;15.132;2024-02-21T06:19:10;3.33;;;1.73;;
20928;SDS011;21895;47.072;15.132;2024-02-21T06:21:37;2.23;;;1.20;;
20928;SDS011;21895;47.072;15.132;2024-02-21T06:24:04;1.93;;;0.87;;
20928;SDS011;21895;47.072;15.132;2024-02-21T06:26:31;3.03;;;1.13;;
20928;SDS011;21895;47.072;15.132;2024-02-21T06:29:00;1.90;;;0.80;;
20928;SDS011;21895;47.072;15.132;2024-02-21T06:31:27;3.10;;;2.03;;
20928;SDS011;21895;47.072;15.132;2024-02-21T06:33:55;7.30;;;3.60;;
20928;SDS011;21895;47.072;15.132;2024-02-21T06:36:21;1.70;;;1.03;;
20928;SDS011;21895;47.072;15.132;2024-02-21T06:38:48;2.90;;;1.40;;
20928;SDS011;21895;47.072;15.132;2024-02-21T06:41:15;9.73;;;2.83;;
20928;SDS011;21895;47.072;15.132;2024-02-21T06:43:44;5.00;;;1.73;;
20928;SDS011;21895;47.072;15.132;2024-02-21T06:46:12;4.33;;;1.70;;
20928;SDS011;21895;47.072;15.132;2024-02-21T06:48:54;9.63;;;2.20;;
20928;SDS011;21895;47.072;15.132;2024-02-21T06:51:26;4.43;;;1.50;;
20928;SDS011;21895;47.072;15.132;2024-02-21T06:53:53;1.77;;;1.07;;
20928;SDS011;21895;47.072;15.132;2024-02-21T06:56:20;5.73;;;1.80;;
20928;SDS011;21895;47.072;15.132;2024-02-21T06:58:52;3.10;;;1.40;;
20928;SDS011;21895;47.072;15.132;2024-02-21T07:01:19;2.37;;;1.20;;
20928;SDS011;21895;47.072;15.132;2024-02-21T07:03:46;2.00;;;1.20;;
20928;SDS011;21895;47.072;15.132;2024-02-21T07:06:12;2.40;;;1.33;;
20928;SDS011;21895;47.072;15.132;2024-02-21T07:08:39;2.50;;;1.47;;
20928;SDS011;21895;47.072;15.132;2024-02-21T07:11:06;1.57;;;1.27;;
20928;SDS011;21895;47.072;15.132;2024-02-21T07:13:33;2.50;;;1.40;;
20928;SDS011;21895;47.072;15.132;2024-02-21T07:16:00;3.10;;;1.53;;
20928;SDS011;21895;47.072;15.132;2024-02-21T07:18:27;3.80;;;1.57;;
20928;SDS011;21895;47.072;15.132;2024-02-21T07:20:56;2.53;;;2.03;;
20928;SDS011;21895;47.072;15.132;2024-02-21T07:23:24;14.30;;;3.40;;
20928;SDS011;21895;47.072;15.132;2024-02-21T07:25:51;19.90;;;4.27;;
20928;SDS011;21895;47.072;15.132;2024-02-21T07:28:18;15.90;;;4.53;;
20928;SDS011;21895;47.072;15.132;2024-02-21T07:30:45;13.43;;;5.10;;
20928;SDS011;21895;47.072;15.132;2024-02-21T07:33:11;16.50;;;4.87;;
20928;SDS011;21895;47.072;15.132;2024-02-21T07:35:38;23.53;;;4.27;;
20928;SDS011;21895;47.072;15.132;2024-02-21T07:38:07;9.53;;;3.87;;
20928;SDS011;21895;47.072;15.132;2024-02-21T07:40:38;7.57;;;2.37;;
20928;SDS011;21895;47.072;15.132;2024-02-21T07:43:04;6.17;;;2.33;;
20928;SDS011;21895;47.072;15.132;2024-02-21T07:45:31;12.73;;;3.53;;
20928;SDS011;21895;47.072;15.132;2024-02-21T07:47:58;6.20;;;3.00;;
20928;SDS011;21895;47.072;15.132;2024-02-21T07:50:24;8.20;;;2.77;;
20928;SDS011;21895;47.072;15.132;2024-02-21T07:52:51;13.17;;;2.90;;
20928;SDS011;21895;47.072;15.132;2024-02-21T07:55:18;9.27;;;2.60;;
20928;SDS011;21895;47.072;15.132;2024-02-21T07:57:45;9.47;;;3.83;;
20928;SDS011;21895;47.072;15.132;2024-02-21T08:00:12;8.37;;;3.03;;
20928;SDS011;21895;47.072;15.132;2024-02-21T08:02:48;11.67;;;3.50;;
20928;SDS011;21895;47.072;15.132;2024-02-21T08:05:15;10.40;;;5.50;;
20928;SDS011;21895;47.072;15.132;2024-02-21T08:07:42;17.73;;;4.07;;
20928;SDS011;21895;47.072;15.132;2024-02-21T08:10:11;11.77;;;5.03;;
20928;SDS011;21895;47.072;15.132;2024-02-21T08:12:38;12.37;;;5.10;;
20928;SDS011;21895;47.072;15.132;2024-02-21T08:15:05;19.30;;;4.57;;
20928;SDS011;21895;47.072;15.132;2024-02-21T08:17:34;40.20;;;5.93;;
20928;SDS011;21895;47.072;15.132;2024-02-21T08:20:00;6.97;;;2.80;;
20928;SDS011;21895;47.072;15.132;2024-02-21T08:22:30;27.13;;;3.27;;
20928;SDS011;21895;47.072;15.132;2024-02-21T08:24:57;11.27;;;3.73;;
20928;SDS011;21895;47.072;15.132;2024-02-21T08:27:23;10.93;;;3.43;;
20928;SDS011;21895;47.072;15.132;2024-02-21T08:29:50;9.17;;;3.20;;
20928;SDS011;21895;47.072;15.132;2024-02-21T08:32:17;6.23;;;2.73;;
20928;SDS011;21895;47.072;15.132;2024-02-21T08:34:43;4.60;;;2.10;;
20928;SDS011;21895;47.072;15.132;2024-02-21T08:37:10;3.83;;;2.17;;
20928;SDS011;21895;47.072;15.132;2024-02-21T08:39:37;11.70;;;2.00;;
20928;SDS011;21895;47.072;15.132;2024-02-21T08:42:04;4.77;;;1.60;;
20928;SDS011;21895;47.072;15.132;2024-02-21T08:44:31;5.33;;;1.90;;
20928;SDS011;21895;47.072;15.132;2024-02-21T08:46:58;3.37;;;1.63;;
20928;SDS011;21895;47.072;15.132;2024-02-21T08:49:26;4.10;;;1.90;;
20928;SDS011;21895;47.072;15.132;2024-02-21T08:51:59;3.87;;;1.83;;
20928;SDS011;21895;47.072;15.132;2024-02-21T08:54:27;9.83;;;2.33;;
20928;SDS011;21895;47.072;15.132;2024-02-21T08:56:53;4.27;;;1.90;;
20928;SDS011;21895;47.072;15.132;2024-02-21T08:59:20;4.23;;;2.07;;
20928;SDS011;21895;47.072;15.132;2024-02-21T09:01:47;5.13;;;2.17;;
20928;SDS011;21895;47.072;15.132;2024-02-21T09:04:14;4.40;;;2.30;;
20928;SDS011;21895;47.072;15.132;2024-02-21T09:06:40;12.93;;;2.70;;
20928;SDS011;21895;47.072;15.132;2024-02-21T09:09:08;19.90;;;3.30;;
20928;SDS011;21895;47.072;15.132;2024-02-21T09:11:35;6.63;;;2.67;;
20928;SDS011;21895;47.072;15.132;2024-02-21T09:14:02;14.10;;;2.50;;
20928;SDS011;21895;47.072;15.132;2024-02-21T09:16:32;6.93;;;2.67;;
20928;SDS011;21895;47.072;15.132;2024-02-21T09:18:59;14.20;;;2.20;;
20928;SDS011;21895;47.072;15.132;2024-02-21T09:21:26;7.87;;;2.17;;
20928;SDS011;21895;47.072;15.132;2024-02-21T09:23:53;6.37;;;2.00;;
20928;SDS011;21895;47.072;15.132;2024-02-21T09:26:25;3.43;;;1.70;;
20928;SDS011;21895;47.072;15.132;2024-02-21T09:28:51;6.37;;;1.90;;
20928;SDS011;21895;47.072;15.132;2024-02-21T09:31:18;5.53;;;2.13;;
20928;SDS011;21895;47.072;15.132;2024-02-21T09:33:45;15.66;;;3.65;;
20928;SDS011;21895;47.072;15.132;2024-02-21T09:36:12;18.30;;;4.70;;
20928;SDS011;21895;47.072;15.132;2024-02-21T09:38:39;4.97;;;2.80;;
20928;SDS011;21895;47.072;15.132;2024-02-21T09:41:16;8.23;;;2.77;;
20928;SDS011;21895;47.072;15.132;2024-02-21T09:43:52;10.90;;;3.07;;
20928;SDS011;21895;47.072;15.132;2024-02-21T09:46:30;9.17;;;1.17;;
20928;SDS011;21895;47.072;15.132;2024-02-21T09:49:26;6.10;;;1.33;;
20928;SDS011;21895;47.072;15.132;2024-02-21T09:52:02;2.24;;;1.23;;
20928;SDS011;21895;47.072;15.132;2024-02-21T09:54:34;1.47;;;1.00;;
20928;SDS011;21895;47.072;15.132;2024-02-21T09:57:02;6.43;;;0.90;;
20928;SDS011;21895;47.072;15.132;2024-02-21T09:59:31;1.00;;;0.60;;
20928;SDS011;21895;47.072;15.132;2024-02-21T10:01:59;1.97;;;0.93;;
20928;SDS011;21895;47.072;15.132;2024-02-21T10:04:27;1.00;;;0.70;;
20928;SDS011;21895;47.072;15.132;2024-02-21T10:06:55;1.37;;;0.63;;
20928;SDS011;21895;47.072;15.132;2024-02-21T10:09:25;3.73;;;0.87;;
20928;SDS011;21895;47.072;15.132;2024-02-21T10:11:54;1.27;;;0.80;;
20928;SDS011;21895;47.072;15.132;2024-02-21T10:14:22;2.57;;;1.07;;
20928;SDS011;21895;47.072;15.132;2024-02-21T10:16:56;0.40;;;0.40;;
20928;SDS011;21895;47.072;15.132;2024-02-21T10:19:26;1.73;;;0.73;;
20928;SDS011;21895;47.072;15.132;2024-02-21T10:22:03;3.57;;;0.70;;
20928;SDS011;21895;47.072;15.132;2024-02-21T10:24:36;2.53;;;0.90;;
20928;SDS011;21895;47.072;15.132;2024-02-21T10:27:07;0.97;;;0.57;;
20928;SDS011;21895;47.072;15.132;2024-02-21T10:29:36;0.67;;;0.50;;
20928;SDS011;21895;47.072;15.132;2024-02-21T10:32:04;3.70;;;0.47;;
20928;SDS011;21895;47.072;15.132;2024-02-21T10:34:36;1.27;;;0.60;;
20928;SDS011;21895;47.072;15.132;2024-02-21T10:37:08;0.50;;;0.50;;
20928;SDS011;21895;47.072;15.132;2024-02-21T10:39:37;4.93;;;0.70;;
20928;SDS011;21895;47.072;15.132;2024-02-21T10:42:06;10.90;;;0.87;;
20928;SDS011;21895;47.072;15.132;2024-02-21T10:44:34;2.57;;;0.70;;
20928;SDS011;21895;47.072;15.132;2024-02-21T10:47:07;6.33;;;0.73;;
20928;SDS011;21895;47.072;15.132;2024-02-21T10:49:41;1.93;;;0.70;;
20928;SDS011;21895;47.072;15.132;2024-02-21T10:55:26;6.13;;;1.30;;
20928;SDS011;21895;47.072;15.132;2024-02-21T10:58:05;0.40;;;0.20;;
20928;SDS011;21895;47.072;15.132;2024-02-21T11:00:31;0.40;;;0.40;;
20928;SDS011;21895;47.072;15.132;2024-02-21T11:03:00;1.43;;;0.40;;
20928;SDS011;21895;47.072;15.132;2024-02-21T11:05:28;0.90;;;0.50;;
20928;SDS011;21895;47.072;15.132;2024-02-21T11:07:55;0.47;;;0.47;;
20928;SDS011;21895;47.072;15.132;2024-02-21T11:10:23;0.50;;;0.50;;
20928;SDS011;21895;47.072;15.132;2024-02-21T11:13:07;1.27;;;0.40;;
20928;SDS011;21895;47.072;15.132;2024-02-21T11:15:39;3.40;;;0.63;;
20928;SDS011;21895;47.072;15.132;2024-02-21T11:18:05;0.80;;;0.53;;
20928;SDS011;21895;47.072;15.132;2024-02-21T11:20:33;0.80;;;0.60;;
20928;SDS011;21895;47.072;15.132;2024-02-21T11:23:01;0.77;;;0.50;;
20928;SDS011;21895;47.072;15.132;2024-02-21T11:25:28;2.53;;;0.60;;
20928;SDS011;21895;47.072;15.132;2024-02-21T11:28:03;0.90;;;0.30;;
20928;SDS011;21895;47.072;15.132;2024-02-21T11:30:31;0.60;;;0.40;;
20928;SDS011;21895;47.072;15.132;2024-02-21T11:33:03;1.10;;;0.53;;
20928;SDS011;21895;47.072;15.132;2024-02-21T11:35:33;1.63;;;0.40;;
20928;SDS011;21895;47.072;15.132;2024-02-21T11:38:13;0.50;;;0.30;;
20928;SDS011;21895;47.072;15.132;2024-02-21T11:40:44;2.90;;;0.40;;
20928;SDS011;21895;47.072;15.132;2024-02-21T11:43:13;0.43;;;0.30;;
20928;SDS011;21895;47.072;15.132;2024-02-21T11:45:41;1.80;;;0.80;;
20928;SDS011;21895;47.072;15.132;2024-02-21T11:48:07;2.93;;;0.30;;
20928;SDS011;21895;47.072;15.132;2024-02-21T11:50:34;1.73;;;0.70;;
20928;SDS011;21895;47.072;15.132;2024-02-21T11:53:05;3.50;;;0.50;;
20928;SDS011;21895;47.072;15.132;2024-02-21T11:55:32;0.77;;;0.50;;
20928;SDS011;21895;47.072;15.132;2024-02-21T11:58:00;1.20;;;0.50;;
20928;SDS011;21895;47.072;15.132;2024-02-21T12:00:26;1.53;;;0.80;;
20928;SDS011;21895;47.072;15.132;2024-02-21T12:02:53;1.20;;;0.40;;
20928;SDS011;21895;47.072;15.132;2024-02-21T12:05:25;1.00;;;0.60;;
20928;SDS011;21895;47.072;15.132;2024-02-21T12:07:54;0.50;;;0.30;;
20928;SDS011;21895;47.072;15.132;2024-02-21T12:10:21;0.60;;;0.60;;
20928;SDS011;21895;47.072;15.132;2024-02-21T12:12:48;2.63;;;0.60;;
20928;SDS011;21895;47.072;15.132;2024-02-21T12:15:18;0.50;;;0.50;;
20928;SDS011;21895;47.072;15.132;2024-02-21T12:17:45;0.83;;;0.60;;
20928;SDS011;21895;47.072;15.132;2024-02-21T12:20:12;4.77;;;0.60;;
20928;SDS011;21895;47.072;15.132;2024-02-21T12:22:41;2.57;;;0.63;;
20928;SDS011;21895;47.072;15.132;2024-02-21T12:25:21;0.70;;;0.40;;
20928;SDS011;21895;47.072;15.132;2024-02-21T12:27:49;1.13;;;0.50;;
20928;SDS011;21895;47.072;15.132;2024-02-21T12:30:16;3.90;;;0.60;;
20928;SDS011;21895;47.072;15.132;2024-02-21T12:32:46;0.80;;;0.60;;
20928;SDS011;21895;47.072;15.132;2024-02-21T12:35:16;0.63;;;0.43;;
20928;SDS011;21895;47.072;15.132;2024-02-21T12:37:43;1.83;;;0.70;;
20928;SDS011;21895;47.072;15.132;2024-02-21T12:40:10;1.40;;;0.93;;
20928;SDS011;21895;47.072;15.132;2024-02-21T12:42:39;1.13;;;0.80;;
20928;SDS011;21895;47.072;15.132;2024-02-21T12:45:06;4.40;;;0.90;;
20928;SDS011;21895;47.072;15.132;2024-02-21T12:47:33;2.63;;;0.97;;
20928;SDS011;21895;47.072;15.132;2024-02-21T12:50:00;2.80;;;0.93;;
20928;SDS011;21895;47.072;15.132;2024-02-21T12:52:29;6.27;;;0.93;;
20928;SDS011;21895;47.072;15.132;2024-02-21T12:54:57;2.47;;;0.80;;
20928;SDS011;21895;47.072;15.132;2024-02-21T12:57:24;5.03;;;1.00;;
20928;SDS011;21895;47.072;15.132;2024-02-21T12:59:53;1.53;;;0.70;;
20928;SDS011;21895;47.072;15.132;2024-02-21T13:02:20;1.30;;;0.80;;
20928;SDS011;21895;47.072;15.132;2024-02-21T13:04:47;3.73;;;1.10;;
20928;SDS011;21895;47.072;15.132;2024-02-21T13:07:14;3.27;;;0.90;;
20928;SDS011;21895;47.072;15.132;2024-02-21T13:09:40;0.73;;;0.70;;
20928;SDS011;21895;47.072;15.132;2024-02-21T13:12:07;1.73;;;0.80;;
20928;SDS011;21895;47.072;15.132;2024-02-21T13:14:34;2.27;;;0.80;;
20928;SDS011;21895;47.072;15.132;2024-02-21T13:17:02;0.60;;;0.60;;
20928;SDS011;21895;47.072;15.132;2024-02-21T13:19:29;1.93;;;1.00;;
20928;SDS011;21895;47.072;15.132;2024-02-21T13:21:55;1.77;;;1.10;;
20928;SDS011;21895;47.072;15.132;2024-02-21T13:24:22;5.30;;;1.50;;
20928;SDS011;21895;47.072;15.132;2024-02-21T13:26:49;1.07;;;0.77;;
20928;SDS011;21895;47.072;15.132;2024-02-21T13:29:15;1.33;;;1.00;;
20928;SDS011;21895;47.072;15.132;2024-02-21T13:31:42;0.97;;;0.90;;
20928;SDS011;21895;47.072;15.132;2024-02-21T13:34:10;2.67;;;1.43;;
20928;SDS011;21895;47.072;15.132;2024-02-21T13:36:38;1.63;;;0.70;;
20928;SDS011;21895;47.072;15.132;2024-02-21T13:39:04;3.40;;;0.90;;
20928;SDS011;21895;47.072;15.132;2024-02-21T13:41:31;1.13;;;0.77;;
20928;SDS011;21895;47.072;15.132;2024-02-21T13:43:59;1.83;;;0.77;;
20928;SDS011;21895;47.072;15.132;2024-02-21T13:46:29;1.50;;;0.90;;
20928;SDS011;21895;47.072;15.132;2024-02-21T13:49:02;4.23;;;0.90;;
20928;SDS011;21895;47.072;15.132;2024-02-21T13:51:34;2.53;;;0.93;;
20928;SDS011;21895;47.072;15.132;2024-02-21T13:54:03;1.47;;;0.90;;
20928;SDS011;21895;47.072;15.132;2024-02-21T13:56:31;1.83;;;1.07;;
20928;SDS011;21895;47.072;15.132;2024-02-21T13:58:58;2.77;;;1.00;;
20928;SDS011;21895;47.072;15.132;2024-02-21T14:01:26;3.37;;;0.80;;
20928;SDS011;21895;47.072;15.132;2024-02-21T14:03:54;3.20;;;1.30;;
20928;SDS011;21895;47.072;15.132;2024-02-21T14:06:20;1.50;;;0.80;;
20928;SDS011;21895;47.072;15.132;2024-02-21T14:08:47;3.53;;;1.33;;
20928;SDS011;21895;47.072;15.132;2024-02-21T14:11:13;2.77;;;1.20;;
20928;SDS011;21895;47.072;15.132;2024-02-21T14:13:40;1.53;;;0.93;;
20928;SDS011;21895;47.072;15.132;2024-02-21T14:16:10;2.10;;;1.23;;
20928;SDS011;21895;47.072;15.132;2024-02-21T14:18:40;1.37;;;1.00;;
20928;SDS011;21895;47.072;15.132;2024-02-21T14:21:10;1.63;;;0.73;;
20928;SDS011;21895;47.072;15.132;2024-02-21T14:23:37;3.83;;;1.10;;
20928;SDS011;21895;47.072;15.132;2024-02-21T14:26:04;2.80;;;1.13;;
20928;SDS011;21895;47.072;15.132;2024-02-21T14:28:32;0.73;;;0.73;;
20928;SDS011;21895;47.072;15.132;2024-02-21T14:31:01;2.47;;;1.10;;
20928;SDS011;21895;47.072;15.132;2024-02-21T14:33:29;1.90;;;1.17;;
20928;SDS011;21895;47.072;15.132;2024-02-21T14:35:56;1.47;;;0.90;;
20928;SDS011;21895;47.072;15.132;2024-02-21T14:38:23;3.00;;;0.70;;
20928;SDS011;21895;47.072;15.132;2024-02-21T14:40:50;1.93;;;0.90;;